Sam Robinson

Olheiro-Chefe - Austin FC
17 Set 2028
Domingo
Processo

Personalidade

Adaptabilidade (11) Ambição (17) Controvérsia (20) Lealdade (1) Pressão (19) Profissionalismo (8) Espírito Esportivo (9) Temperamento (6)

Perfil

Estilo de Treinamento Democrático
Licença Continental B
Determinação 4
Gestão de Pessoas 9
Motivação 4
Disciplina 10
Satisfação no Trabalho
100%
Fadiga
0%
Função Olheiro-Chefe
Salário 38.1K p/s
Contrato 14.03.2030

Desempenho

Comportamento Bom
Eficácia do Treinamento
45%
Desenvolvimento do Jogador
60%
Prevenção de Lesões
60%
Implementação Tática
25%

Eventos Recentes

Avaliou um jogador agora
Participou de uma reunião de recrutamento agora
Recomendou um alvo de transferência agora
Avaliou um jogador agora
Avaliou um jogador agora
Observou uma partida agora
Observou uma partida 7d atrás
Avaliou um jogador 7d atrás

Monitorando agora

156
Jogador Clube Status Habilidade Confiança Observado Última observação Último voto
Gideon Manaseh Ikorodu City Ativo 91 / 104 40% 4 16.09.2028 -
Jan Cedilnik Chikhura Ativo 82 / 92 40% 1 16.09.2028 -
Ronan Kpakio AC Milan Ativo 124 / 132 40% 4 15.09.2028 -
Anderson Acevedo Bogota Ativo 82 / 96 40% 1 15.09.2028 -
Diego León Rotherham United Ativo 130 / 128 40% 1 13.09.2028 -
Aytor Herrera Mineros de Guayana Ativo 94 / 89 40% 1 13.09.2028 -
Tiago Gordillo San Miguel Ativo 80 / 96 40% 2 11.09.2028 -
Estanislao López Colón Ativo 95 / 96 40% 2 11.09.2028 -
Tyler Fletcher Rotherham United Ativo 127 / 118 40% 1 11.09.2028 -
Riquelme Thompson-Jones Accrington Stanley Ativo 123 / 119 40% 4 09.09.2028 -
Toheeb Adebayo Shooting Stars Ativo 88 / 89 40% 2 08.09.2028 -
Joel Ezra Enyimba Ativo 99 / 104 40% 4 07.09.2028 -
Máximo Munarriz San Telmo Ativo 102 / 110 40% 1 07.09.2028 -
Mateo Caballero Defensor Sporting Ativo 109 / 105 40% 2 06.09.2028 -
Tobías Ramírez River Plate Ativo 128 / 135 40% 1 06.09.2028 -
Felipe Varela Trujillanos Ativo 98 / 98 40% 1 05.09.2028 -
Jack Fletcher Manchester United Ativo 116 / 124 40% 1 05.09.2028 -
Landon Emenalo Chelsea Ativo 116 / 128 40% 1 04.09.2028 -
Jim Thwaites Manchester United Ativo 120 / 129 40% 1 04.09.2028 -
Aaron Branca Artigas Ativo 84 / 86 40% 1 07.08.2028 -
Kwesi Sorotu Badori Berekum Chelsea Ativo 102 / 105 40% 1 07.08.2028 -
Elias Mansor Millwall Ativo 95 / 117 40% 1 07.08.2028 -
Jorthy Mokio ADO Den Haag Ativo 121 / 139 40% 2 22.02.2028 -
Ramadan Ashour Sporting Cristal Ativo 120 / 120 67% 1 14.02.2028 Aprovar
Josh Nichols Oldham Athletic Rejeitado 117 / 124 40% 6 12.02.2028 Rejeitar
Josh Acheampong Everton Ativo 148 / 154 40% 5 12.02.2028 -
Matias Siltanen Malmo FF Ativo 126 / 133 40% 4 10.01.2028 -
Francisco Machis Llaneros Ativo 90 / 94 40% 1 10.01.2028 -
Honest Ahanor Atalanta Ativo 143 / 142 40% 1 07.01.2028 -
Christos Mouzakitis Hull City Ativo 142 / 141 40% 5 04.01.2028 -
Teboho Mokoena Black Aces Ativo 97 / 94 40% 1 03.01.2028 -
Caleb Yirenkyi Coventry City Ativo 142 / 138 40% 6 02.01.2028 -
Trey Nyoni Rotherham United Ativo 149 / 143 40% 6 31.12.2027 -
Matvey Bardachev Zenit Ativo 116 / 120 40% 1 31.12.2027 -
Luka Vušković Tottenham Ativo 136 / 153 40% 5 23.12.2027 -
Giovanni Leoni Lincoln City Ativo 130 / 145 40% 2 22.12.2027 -
Andrey Ivlev Nizhniy Novgorod Ativo 125 / 118 40% 1 20.12.2027 -
Ayden Heaven Portsmouth Ativo 148 / 153 40% 6 18.12.2027 -
Lucas Bergvall Tottenham Ativo 137 / 156 40% 4 17.12.2027 -
Callum Olusesi Tottenham Ativo 114 / 125 40% 3 16.12.2027 -
Rasmus Nehrman Gefle Ativo 66 / 89 40% 1 07.12.2027 -
Malick Yalcouyé Brighton Ativo 132 / 137 40% 2 08.11.2027 -
Ivan Borges Defensores Ativo 75 / 89 40% 1 07.11.2027 -
Ezra Mayers West Ham United Ativo 112 / 133 40% 1 03.11.2027 -
Godwin Oham Warri Wolves Ativo 78 / 96 40% 2 28.10.2027 -
Juan Diego Perdomo Depor Ativo 80 / 86 40% 2 24.10.2027 -
Edvard Pettersen Sandefjord Ativo 93 / 111 40% 1 21.10.2027 -
Matthew Litherland Harrogate Town Ativo 100 / 125 40% 2 07.10.2027 -
Colin Guske Orlando City Ativo 93 / 100 40% 1 05.10.2027 -
Victor Hernandez Santa Fe Ativo 130 / 124 40% 1 15.09.2027 -
Mpho Khethang FC Diarra Ativo 81 / 87 40% 1 13.09.2027 -
Jacob Wright Norwich City Ativo 135 / 136 40% 1 12.09.2027 -
Olaniyi Saheed Kwara United Ativo 110 / 96 40% 1 12.09.2027 -
Isaías Silva Miramar Misiones Ativo 72 / 93 40% 1 06.09.2027 -
Esteban de Lima Tacuarembo Ativo 90 / 102 40% 1 06.09.2027 -
Tyrese Spicer Orlando City Ativo 104 / 99 58% 1 19.07.2027 -
Ishmael Addo Heart of Lions Ativo 76 / 99 40% 4 06.07.2027 -
Calum Agius Crewe Alexandra Ativo 97 / 92 40% 1 06.07.2027 -
Riley Owen Stevenage Ativo 96 / 103 40% 2 04.07.2027 -
Othmane Maamma Watford Ativo 136 / 131 40% 5 03.07.2027 -
Lander Astiazarán Real Sociedad Ativo 115 / 123 40% 2 03.07.2027 -
Oscar Schwartau Norwich City Ativo 114 / 126 40% 6 02.07.2027 -
Sindre Walle Egeli Udinese Ativo 121 / 142 40% 3 02.07.2027 -
Araphat Mohammed Ashanti Gold Ativo 101 / 106 40% 2 01.07.2027 -
Zane Albarus Shrewsbury Town Ativo 98 / 111 40% 2 01.07.2027 -
Leo Castledine Middlesbrough Ativo 116 / 126 40% 2 29.06.2027 -
Nana Nuhu WAFA Ativo 77 / 84 40% 2 29.06.2027 -
Gladson Adjei WAFA Ativo 82 / 82 40% 2 27.06.2027 -
Mustapha Umar Kano Pillars Ativo 99 / 93 40% 1 18.06.2027 -
Ryan Oné Sheffield United Ativo 102 / 129 40% 4 16.06.2027 -
Abubakar Garba Nasarawa United Ativo 97 / 93 40% 1 16.06.2027 -
Daniel Awuni Aduana Stars Ativo 109 / 102 40% 1 13.06.2027 -
Gomolemo Kekana Maritzburg United Ativo 93 / 111 40% 1 13.06.2027 -
Mohamadou Kanté Crawley Town Ativo 104 / 126 40% 2 11.06.2027 -
Mateus Mané Burnley Ativo 146 / 142 40% 1 09.06.2027 -
Maren Kefas Plateau United Ativo 101 / 104 40% 2 07.06.2027 -
Bazoumana Touré Newcastle United Ativo 145 / 135 40% 1 03.06.2027 -
Ethan Williams Peterborough United Ativo 118 / 113 40% 1 01.06.2027 -
Luke Baartman Ajax Cape Town Ativo 98 / 111 40% 2 27.05.2027 -
Romelle Donovan Brentford Ativo 123 / 133 40% 2 23.05.2027 -
Bade Aluko Leicester City Ativo 119 / 129 40% 1 21.05.2027 -
Kwandile Gumemde US Bougouni Ativo 65 / 88 40% 1 17.05.2027 -
Kirill Glebov CSKA Moscow Ativo 125 / 139 40% 1 12.05.2027 -
Edwin Asamoah Berekum Chelsea Ativo 97 / 79 40% 3 09.05.2027 -
Monty Batlhabane Polokwane City Ativo 84 / 108 40% 1 30.03.2027 -
Morris Duggan Minnesota United FC Ativo 98 / 102 55% 1 01.03.2027 -
Elijah Adebayo Luton Town Ativo 136 / 127 40% 1 10.02.2027 -
Dardan Shabanhaxhaj Rubin Ativo 110 / 108 40% 1 05.02.2027 -
Rivaldo Mkhize Black Aces Ativo 69 / 90 40% 1 03.02.2027 -
George Hoddle Cambridge United Ativo 100 / 84 40% 1 03.02.2027 -
Gady Beyuku Blackburn Rovers Ativo 105 / 111 40% 1 01.02.2027 -
David Romero Parma Ativo 118 / 115 40% 1 29.01.2027 -
Simphiwe Selepe Orlando Pirates Ativo 106 / 112 40% 1 28.01.2027 -
Kwadwo Duah Ludogorets Ativo 125 / 128 40% 1 27.01.2027 -
Thalente Mbatha Orlando Pirates Ativo 120 / 119 40% 3 25.01.2027 -
Gianluca Scamacca Atalanta Ativo 148 / 145 40% 1 20.01.2027 -
Evidence Makgopa Orlando Pirates Ativo 106 / 113 40% 1 19.01.2027 -
Nicolò Zaniolo Udinese Ativo 132 / 136 40% 1 17.01.2027 -
Arthur Gomes Dinamo Moscow Ativo 109 / 120 40% 1 17.01.2027 -
Oleksii Hutsuliak Polissia Ativo 143 / 116 40% 1 16.01.2027 -
Martin Sekulić Ural Ativo 111 / 119 40% 1 15.01.2027 -
Armstrong Oko-Flex Levski Ativo 120 / 132 40% 1 13.01.2027 -
Matteo Rover Reggiana Ativo 108 / 113 40% 1 13.01.2027 -
Mustapha Sangaré Levski Ativo 107 / 117 40% 1 12.01.2027 -
Oswin Appollis Orlando Pirates Ativo 123 / 128 40% 3 11.01.2027 -
Nkosingiphile Ngcobo Kaizer Chiefs Ativo 118 / 113 40% 1 10.01.2027 -
Gonzalo Gamarra Floriana Ativo 100 / 96 40% 1 10.01.2027 -
Marcelo Allende Mamelodi Sundowns Ativo 125 / 136 40% 4 08.01.2027 -
Talles Magno New York City Ativo 134 / 128 40% 5 06.01.2027 -
Bradley Zwane SuperSport United Ativo 103 / 112 40% 3 06.01.2027 -
Erick Dolly Black Aces Ativo 98 / 117 40% 1 06.01.2027 -
Mikhail Ignatov Sochi Ativo 119 / 126 40% 1 04.01.2027 -
Thabang Matuludi Polokwane City Ativo 97 / 111 40% 3 01.01.2027 -
Reda Khadra Qarabag Ativo 147 / 141 40% 1 31.12.2026 -
Juan Bezerra Zamalek Ativo 124 / 110 40% 1 29.12.2026 -
Wandile Duba ASO Chlef Ativo 115 / 93 40% 1 29.12.2026 -
Yahaya Ibrahim Plateau United Ativo 80 / 100 40% 2 28.12.2026 -
Cheveyo Tsawa Club Brugge Ativo 118 / 117 40% 2 26.12.2026 -
Khama Mokoena Free State Stars Ativo 91 / 94 40% 2 26.12.2026 -
Vyacheslav Grulev Nizhniy Novgorod Ativo 116 / 115 40% 1 26.12.2026 -
Matej Trusa DAC Dunajska Streda Ativo 120 / 109 40% 1 26.12.2026 -
Berna CSKA 1948 Ativo 114 / 116 40% 1 22.12.2026 -
Chico Banza Zamalek Ativo 108 / 109 40% 1 20.12.2026 -
Petar Musa FC Dallas Ativo 146 / 135 40% 1 17.12.2026 -
Mathys Tel Tottenham Ativo 147 / 140 40% 2 15.12.2026 -
Suleiman Camara Slovan Bratislava Ativo 103 / 118 40% 1 05.12.2026 -
Yeangel Montero Naxxar Lions Ativo 106 / 90 40% 2 04.12.2026 -
Thulani Mabaso Platinum Stars Ativo 86 / 110 40% 2 29.11.2026 -
Malebogo Modise Polokwane City Ativo 91 / 94 40% 1 27.11.2026 -
Daniel Kyerewaa Reading Ativo 102 / 115 40% 1 22.11.2026 -
Brooklyn Poggenpoel Maritzburg United Ativo 90 / 112 40% 1 21.11.2026 -
Bongani Zungu Ajax Cape Town Ativo 130 / 114 40% 3 19.11.2026 -
Leif Davis Ipswich Town Ativo 148 / 126 40% 2 16.11.2026 -
Ronaldo Maarman University of Pretoria Ativo 115 / 97 40% 2 15.11.2026 -
Goodman Mosele Chippa United Ativo 112 / 109 40% 1 10.11.2026 -
Thabiso Monyane Kaizer Chiefs Ativo 112 / 94 40% 1 08.11.2026 -
Lebogang Manyama SuperSport United Ativo 122 / 107 40% 1 06.11.2026 -
Olalekan Adeleke Remo Stars Ativo 73 / 100 40% 2 04.11.2026 -
Cemran Dansin Orlando Pirates Ativo 121 / 127 40% 2 04.11.2026 -
Jens Petter Hauge Bodo/Glimt Ativo 130 / 145 40% 1 04.11.2026 -
Mandla Kekana Ajax Cape Town Ativo 127 / 120 40% 1 04.11.2026 -
Antonio Galeano Remo Stars Ativo 117 / 135 40% 1 23.10.2026 -
Bénie Traoré New York City Ativo 129 / 121 40% 1 22.10.2026 -
Jesus Ferreira Seattle Sounders Ativo 116 / 126 40% 1 19.10.2026 -
Tadeo Allende Inter Miami CF Ativo 110 / 127 40% 2 18.10.2026 -
Diego Luna Real Salt Lake Ativo 117 / 118 40% 1 16.10.2026 -
Marco Pašalić Orlando City Ativo 116 / 129 40% 1 13.10.2026 -
Philippe Ndinga Philadelphia Union Ativo 119 / 112 40% 1 13.10.2026 -
Joe Johnson Luton Town Ativo 93 / 95 40% 1 11.10.2026 -
Gabriel Lekan Kun Khalifat Ativo 104 / 95 40% 1 10.10.2026 -
Emmanuel Mathias Ikorodu City Ativo 83 / 103 40% 1 10.10.2026 -
Paul Samson Plateau United Ativo 119 / 95 40% 1 08.10.2026 -
Law McCabe Middlesbrough Ativo 114 / 117 40% 1 11.09.2026 -
Chibueze Oputa Rangers International Ativo 105 / 91 40% 1 09.09.2026 -
Lenny Agbaire Rotherham United Ativo 94 / 100 40% 1 08.09.2026 -
Timo Werner San Jose Earthquakes Ativo 127 / 127 40% 1 01.08.2026 -